Time;durP1;ratioP1;P1;durP2;ratioP2;P2;SDS_P1;SDS_P2;PMS_P1;PMS_P2;Temp;Humidity;BMP_temperature;BMP_pressure;BME280_temperature;BME280_humidity;BME280_pressure;Samples;Min_cycle;Max_cycle;Signal;HPM_P1;HPM_P2
2024/01/04 00:01:00;;;;;;;3.80;0.73;;;5.00;99.90;;;;;;2035308;29;20310;-75
2024/01/04 00:02:00;;;;;;;2.40;0.70;;;5.00;99.90;;;;;;2044816;28;20339;-75
2024/01/04 00:03:01;;;;;;;1.23;0.67;;;5.00;99.90;;;;;;2042267;28;20323;-72
2024/01/04 00:04:02;;;;;;;2.87;0.70;;;5.00;99.90;;;;;;2046809;28;20221;-71
2024/01/04 00:05:03;;;;;;;2.40;0.70;;;5.00;99.90;;;;;;2031035;29;20248;-74
2024/01/04 00:06:04;;;;;;;3.15;0.98;;;5.00;99.90;;;;;;2038656;28;20685;-73
2024/01/04 00:07:05;;;;;;;5.37;1.00;;;5.00;99.90;;;;;;2041800;28;20231;-73
2024/01/04 00:08:05;;;;;;;1.73;0.63;;;5.00;99.90;;;;;;2044467;28;20194;-75
2024/01/04 00:09:06;;;;;;;1.27;0.70;;;5.00;99.90;;;;;;2042717;28;20200;-74
2024/01/04 00:10:08;;;;;;;3.00;1.00;;;5.00;99.90;;;;;;2044654;28;20202;-72
2024/01/04 00:11:09;;;;;;;2.17;0.82;;;4.90;99.90;;;;;;2046139;28;20203;-74
2024/01/04 00:12:09;;;;;;;3.57;0.70;;;5.00;99.90;;;;;;2030569;29;20607;-74
2024/01/04 00:13:10;;;;;;;5.17;1.00;;;4.90;99.90;;;;;;2035596;28;20184;-76
2024/01/04 00:14:11;;;;;;;2.03;0.80;;;5.00;99.90;;;;;;2047000;28;20751;-74
2024/01/04 00:15:11;;;;;;;2.33;1.27;;;5.00;99.90;;;;;;2047917;28;20190;-76
2024/01/04 00:16:12;;;;;;;3.23;0.80;;;5.00;99.90;;;;;;2039212;28;20548;-75
2024/01/04 00:17:13;;;;;;;2.23;0.77;;;5.00;99.90;;;;;;2044817;28;20271;-72
2024/01/04 00:18:14;;;;;;;4.20;0.50;;;4.90;99.90;;;;;;2039003;29;20208;-74
2024/01/04 00:19:14;;;;;;;2.17;1.00;;;4.90;99.90;;;;;;2043072;28;20544;-73
2024/01/04 00:20:15;;;;;;;2.27;0.70;;;4.90;99.90;;;;;;2051747;28;20309;-76
2024/01/04 00:21:16;;;;;;;4.13;1.03;;;4.90;99.90;;;;;;2045599;28;20649;-74
2024/01/04 00:22:16;;;;;;;2.17;0.90;;;4.90;99.90;;;;;;2041453;28;20190;-72
2024/01/04 00:23:17;;;;;;;2.30;0.90;;;4.80;99.90;;;;;;2044368;28;20187;-74
2024/01/04 00:24:18;;;;;;;3.33;0.60;;;4.90;99.90;;;;;;2046574;28;20208;-75
2024/01/04 00:25:19;;;;;;;3.30;1.47;;;4.80;99.90;;;;;;2039100;29;20678;-76
2024/01/04 00:26:19;;;;;;;2.40;0.93;;;4.80;99.90;;;;;;2044391;28;20674;-77
2024/01/04 00:27:20;;;;;;;0.50;0.50;;;4.90;99.90;;;;;;2044255;28;20195;-74
2024/01/04 00:28:21;;;;;;;1.77;0.90;;;4.90;99.90;;;;;;2038219;29;20240;-76
2024/01/04 00:29:21;;;;;;;4.23;1.00;;;4.90;99.90;;;;;;2034363;29;20255;-74
2024/01/04 00:30:22;;;;;;;1.23;0.80;;;4.90;99.90;;;;;;2043643;28;20227;-74
2024/01/04 00:31:23;;;;;;;2.20;0.90;;;4.80;99.90;;;;;;2051398;28;20237;-74
2024/01/04 00:32:23;;;;;;;4.70;0.80;;;4.80;99.90;;;;;;2043647;28;20228;-74
2024/01/04 00:33:24;;;;;;;2.00;0.77;;;4.80;99.90;;;;;;2042774;28;20230;-74
2024/01/04 00:34:25;;;;;;;1.63;0.90;;;4.80;99.90;;;;;;2044423;28;20725;-77
2024/01/04 00:35:25;;;;;;;4.30;0.90;;;4.70;99.90;;;;;;2037665;29;20254;-73
2024/01/04 00:36:26;;;;;;;3.67;1.30;;;4.70;99.90;;;;;;2028696;29;20265;-73
2024/01/04 00:37:27;;;;;;;2.73;1.23;;;4.70;99.90;;;;;;2028180;29;20342;-74
2024/01/04 00:38:27;;;;;;;1.70;0.63;;;4.70;99.90;;;;;;2030874;29;20265;-75
2024/01/04 00:39:28;;;;;;;6.00;1.37;;;4.60;99.90;;;;;;2051934;28;20227;-73
2024/01/04 00:40:29;;;;;;;3.40;0.90;;;4.60;99.90;;;;;;2045635;28;20235;-76
2024/01/04 00:41:30;;;;;;;2.33;1.00;;;4.60;99.90;;;;;;2045160;28;20230;-77
2024/01/04 00:42:30;;;;;;;3.87;0.70;;;4.70;99.90;;;;;;2043018;28;20254;-76
2024/01/04 00:43:31;;;;;;;1.87;0.60;;;4.70;99.90;;;;;;2039276;28;20713;-74
2024/01/04 00:44:32;;;;;;;4.77;1.10;;;4.70;99.90;;;;;;2042835;28;20687;-73
2024/01/04 00:45:32;;;;;;;3.10;0.87;;;4.70;99.90;;;;;;2041371;28;20235;-74
2024/01/04 00:46:33;;;;;;;3.07;0.80;;;4.70;99.90;;;;;;2032480;28;20266;-74
2024/01/04 00:47:33;;;;;;;2.57;0.87;;;4.70;99.90;;;;;;2040046;28;20788;-74
2024/01/04 00:48:34;;;;;;;1.00;0.80;;;4.70;99.90;;;;;;2031027;29;20240;-75
2024/01/04 00:49:35;;;;;;;3.27;1.03;;;4.70;99.90;;;;;;2029622;29;20233;-76
2024/01/04 00:50:35;;;;;;;1.10;0.80;;;4.70;99.90;;;;;;2045348;28;20266;-74
2024/01/04 00:51:36;;;;;;;3.77;1.20;;;4.80;99.90;;;;;;2040416;28;20263;-75
2024/01/04 00:52:37;;;;;;;2.13;1.20;;;4.80;99.90;;;;;;2031201;28;20314;-76
2024/01/04 00:53:38;;;;;;;2.60;0.83;;;4.70;99.90;;;;;;2034713;29;20240;-75
2024/01/04 00:54:38;;;;;;;2.83;1.10;;;4.70;99.90;;;;;;2037978;29;20228;-77
2024/01/04 00:55:39;;;;;;;3.07;0.77;;;4.70;99.90;;;;;;2034557;29;20327;-76
2024/01/04 00:56:40;;;;;;;5.53;1.07;;;4.70;99.90;;;;;;2044085;28;20227;-75
2024/01/04 00:57:40;;;;;;;2.40;0.70;;;4.80;99.90;;;;;;2051259;28;20289;-77
2024/01/04 00:58:41;;;;;;;5.83;1.27;;;4.80;99.90;;;;;;2039014;28;20387;-75
2024/01/04 00:59:42;;;;;;;4.80;1.10;;;4.80;99.90;;;;;;2034403;28;20322;-75
2024/01/04 01:00:43;;;;;;;2.73;1.00;;;4.70;99.90;;;;;;2045167;28;20318;-76
2024/01/04 01:01:44;;;;;;;1.10;0.80;;;4.70;99.90;;;;;;2051733;28;20315;-76
2024/01/04 01:02:44;;;;;;;1.70;1.00;;;4.70;99.90;;;;;;2042315;28;20232;-76
2024/01/04 01:03:45;;;;;;;4.43;1.47;;;4.70;99.90;;;;;;2038560;29;20223;-75
2024/01/04 01:04:46;;;;;;;2.93;1.27;;;4.70;99.90;;;;;;2027466;29;20235;-76
2024/01/04 01:05:46;;;;;;;1.23;0.60;;;4.60;99.90;;;;;;2033503;28;20231;-76
2024/01/04 01:06:47;;;;;;;8.53;0.93;;;4.70;99.90;;;;;;2043958;28;20250;-75
2024/01/04 01:07:48;;;;;;;2.87;1.00;;;4.60;99.90;;;;;;2035061;29;20233;-75
2024/01/04 01:08:48;;;;;;;3.43;1.10;;;4.70;99.90;;;;;;2046116;28;20231;-74
2024/01/04 01:09:49;;;;;;;3.27;1.00;;;4.60;99.90;;;;;;2045691;28;20243;-77
2024/01/04 01:10:50;;;;;;;3.53;0.80;;;4.70;99.90;;;;;;2044805;28;20263;-76
2024/01/04 01:11:51;;;;;;;2.83;1.07;;;4.70;99.90;;;;;;2045261;28;20231;-76
2024/01/04 01:12:52;;;;;;;5.30;1.30;;;4.70;99.90;;;;;;2042742;28;20288;-76
2024/01/04 01:13:52;;;;;;;1.07;0.80;;;4.60;99.90;;;;;;2044880;28;20223;-75
2024/01/04 01:14:53;;;;;;;2.13;0.70;;;4.60;99.90;;;;;;2046589;28;20233;-76
2024/01/04 01:15:54;;;;;;;1.67;0.87;;;4.70;99.90;;;;;;2045038;28;20729;-76
2024/01/04 01:16:55;;;;;;;1.50;0.80;;;4.60;99.90;;;;;;2043789;28;20610;-77
2024/01/04 01:17:55;;;;;;;1.42;0.70;;;4.60;99.90;;;;;;2035146;28;20325;-76
2024/01/04 01:18:56;;;;;;;2.13;0.73;;;4.60;99.90;;;;;;2034242;28;20231;-75
2024/01/04 01:19:57;;;;;;;2.45;0.88;;;4.60;99.90;;;;;;2033650;28;20809;-76
2024/01/04 01:20:58;;;;;;;1.67;0.80;;;4.70;99.90;;;;;;2040696;28;20235;-75
2024/01/04 01:21:59;;;;;;;7.17;0.70;;;4.70;99.90;;;;;;2035329;29;20240;-75
2024/01/04 01:22:59;;;;;;;3.20;0.93;;;4.70;99.90;;;;;;2030744;29;20706;-76
2024/01/04 01:24:00;;;;;;;2.83;1.30;;;4.60;99.90;;;;;;2037349;28;20228;-74
2024/01/04 01:25:01;;;;;;;3.57;0.90;;;4.70;99.90;;;;;;2042769;28;20716;-74
2024/01/04 01:26:05;;;;;;;3.87;0.97;;;4.70;99.90;;;;;;2044071;28;20795;-75
2024/01/04 01:27:06;;;;;;;1.70;0.70;;;4.70;99.90;;;;;;2044107;28;20653;-76
2024/01/04 01:28:06;;;;;;;1.97;0.70;;;4.70;99.90;;;;;;2051059;28;20284;-77
2024/01/04 01:29:07;;;;;;;1.80;0.80;;;4.70;99.90;;;;;;2045700;28;20184;-76
2024/01/04 01:30:08;;;;;;;2.07;0.90;;;4.70;99.90;;;;;;2044658;28;20782;-74
2024/01/04 01:31:09;;;;;;;1.33;0.60;;;4.80;99.90;;;;;;2044459;28;20196;-74
2024/01/04 01:32:10;;;;;;;1.47;0.80;;;4.80;99.90;;;;;;2042972;28;20294;-75
2024/01/04 01:33:10;;;;;;;2.73;0.60;;;4.70;99.90;;;;;;2042438;28;20273;-66
2024/01/04 01:34:11;;;;;;;1.23;0.70;;;4.70;99.90;;;;;;2045841;28;20262;-67
2024/01/04 01:35:14;;;;;;;1.43;0.60;;;4.80;99.90;;;;;;2046740;28;20725;-67
2024/01/04 01:36:14;;;;;;;2.22;0.65;;;4.90;99.90;;;;;;2046771;28;20241;-67
2024/01/04 01:37:15;;;;;;;1.50;0.63;;;4.90;99.90;;;;;;2043075;28;20665;-67
2024/01/04 01:38:16;;;;;;;0.50;0.50;;;4.90;99.90;;;;;;2042952;28;20217;-66
2024/01/04 01:39:16;;;;;;;1.47;0.90;;;4.90;99.90;;;;;;2045838;28;20552;-67
2024/01/04 01:40:17;;;;;;;2.47;0.70;;;4.90;99.90;;;;;;2045237;28;20202;-67
2024/01/04 01:41:18;;;;;;;1.00;0.60;;;4.90;99.90;;;;;;2044819;28;20283;-67
2024/01/04 01:42:20;;;;;;;3.70;0.70;;;4.90;99.90;;;;;;2042215;28;20235;-68
2024/01/04 01:43:21;;;;;;;2.25;0.70;;;4.90;99.90;;;;;;2042695;28;20239;-67
2024/01/04 01:44:22;;;;;;;2.63;0.60;;;4.90;99.90;;;;;;2050517;28;20235;-68
2024/01/04 01:45:22;;;;;;;2.70;1.00;;;4.90;99.90;;;;;;2044244;28;20319;-67
2024/01/04 01:46:23;;;;;;;3.23;0.83;;;4.80;99.90;;;;;;2035816;29;20255;-68
2024/01/04 01:47:24;;;;;;;2.93;1.13;;;4.80;99.90;;;;;;2042009;28;20262;-66
2024/01/04 01:48:25;;;;;;;1.97;0.87;;;4.80;99.90;;;;;;2043740;28;20242;-67
2024/01/04 01:49:26;;;;;;;3.50;1.00;;;4.80;99.90;;;;;;2045767;28;20241;-67
2024/01/04 01:50:27;;;;;;;0.88;0.70;;;4.90;99.90;;;;;;2035460;28;20598;-68
2024/01/04 01:51:28;;;;;;;3.33;0.93;;;4.80;99.90;;;;;;2039297;28;20238;-68
2024/01/04 01:52:28;;;;;;;1.65;0.80;;;4.80;99.90;;;;;;2037886;28;20717;-67
2024/01/04 01:53:29;;;;;;;2.00;0.57;;;4.80;99.90;;;;;;2042058;28;20314;-68
2024/01/04 01:54:30;;;;;;;1.10;0.50;;;4.80;99.90;;;;;;2033972;28;20239;-68
2024/01/04 01:55:31;;;;;;;1.15;0.60;;;4.80;99.90;;;;;;2034275;29;20229;-67
2024/01/04 01:56:32;;;;;;;0.63;0.53;;;4.80;99.90;;;;;;2043787;28;20235;-67
2024/01/04 01:57:33;;;;;;;3.25;0.98;;;4.80;99.90;;;;;;2032462;28;20312;-68
2024/01/04 01:58:35;;;;;;;2.57;0.87;;;4.80;99.90;;;;;;2031799;29;20366;-67
2024/01/04 01:59:36;;;;;;;3.45;0.80;;;4.80;99.90;;;;;;2036923;29;20716;-67
2024/01/04 02:00:37;;;;;;;2.70;0.80;;;4.90;99.90;;;;;;2043680;28;20279;-67
2024/01/04 02:01:38;;;;;;;1.50;1.00;;;4.80;99.90;;;;;;2042768;28;20234;-68
2024/01/04 02:02:39;;;;;;;1.77;0.60;;;4.80;99.90;;;;;;2044916;28;20826;-67
2024/01/04 02:03:40;;;;;;;4.03;0.67;;;4.80;99.90;;;;;;2026308;29;20240;-67
2024/01/04 02:04:41;;;;;;;1.50;0.60;;;4.80;99.90;;;;;;2033427;28;20221;-68
2024/01/04 02:05:41;;;;;;;1.03;0.60;;;4.80;99.90;;;;;;2051085;28;20245;-67
2024/01/04 02:06:42;;;;;;;1.73;0.83;;;4.80;99.90;;;;;;2049392;28;20227;-67
2024/01/04 02:07:44;;;;;;;0.60;0.50;;;4.80;99.90;;;;;;2045289;28;20286;-67
2024/01/04 02:08:48;;;;;;;1.45;0.60;;;4.80;99.90;;;;;;2044062;28;20262;-67
2024/01/04 02:09:49;;;;;;;1.08;0.50;;;4.80;99.90;;;;;;2041147;28;20242;-67
2024/01/04 02:10:50;;;;;;;1.80;0.50;;;4.80;99.90;;;;;;2034964;29;20227;-67
2024/01/04 02:11:50;;;;;;;1.90;0.60;;;4.80;99.90;;;;;;2036339;29;20293;-67
2024/01/04 02:12:51;;;;;;;1.37;0.40;;;4.80;99.90;;;;;;2041581;28;20271;-67
2024/01/04 02:13:52;;;;;;;1.17;0.60;;;4.80;99.90;;;;;;2044590;28;20319;-67
2024/01/04 02:14:54;;;;;;;0.40;0.40;;;4.80;99.90;;;;;;2045170;28;20761;-67
2024/01/04 02:15:55;;;;;;;0.47;0.40;;;4.80;99.90;;;;;;2046130;28;20239;-67
2024/01/04 02:16:55;;;;;;;1.60;1.00;;;4.90;99.90;;;;;;2041806;28;20690;-66
2024/01/04 02:17:56;;;;;;;0.50;0.50;;;4.90;99.90;;;;;;2036962;29;20352;-67
2024/01/04 02:18:57;;;;;;;1.20;0.73;;;4.80;99.90;;;;;;2043961;28;20232;-66
2024/01/04 02:19:58;;;;;;;1.05;0.57;;;4.80;99.90;;;;;;2038278;29;20228;-66
2024/01/04 02:20:59;;;;;;;1.57;0.63;;;4.80;99.90;;;;;;2026721;29;20236;-67
2024/01/04 02:22:00;;;;;;;0.80;0.50;;;4.80;99.90;;;;;;2037773;29;20232;-67
2024/01/04 02:23:01;;;;;;;1.63;0.60;;;4.80;99.90;;;;;;2043415;28;20238;-67
2024/01/04 02:24:01;;;;;;;1.63;0.93;;;4.80;99.90;;;;;;2052057;28;20609;-67
2024/01/04 02:25:04;;;;;;;3.43;0.63;;;4.80;99.90;;;;;;2045949;28;20183;-67
2024/01/04 02:26:04;;;;;;;2.40;0.90;;;4.80;99.90;;;;;;2043441;28;20202;-67
2024/01/04 02:27:05;;;;;;;0.97;0.30;;;4.70;99.90;;;;;;2042738;28;20223;-66
2024/01/04 02:28:07;;;;;;;0.73;0.60;;;4.80;99.90;;;;;;2044594;28;20222;-67
2024/01/04 02:29:08;;;;;;;4.15;0.73;;;4.80;99.90;;;;;;2043576;28;20243;-67
2024/01/04 02:30:11;;;;;;;1.67;0.70;;;4.80;99.90;;;;;;2043366;28;20285;-67
2024/01/04 02:31:12;;;;;;;1.67;0.50;;;4.80;99.90;;;;;;2045607;28;20275;-67
2024/01/04 02:32:12;;;;;;;1.30;0.53;;;4.80;99.90;;;;;;2048818;28;20722;-67
2024/01/04 02:33:13;;;;;;;0.47;0.40;;;4.80;99.90;;;;;;2052176;28;20753;-67
2024/01/04 02:34:14;;;;;;;3.90;0.77;;;4.80;99.90;;;;;;2044175;28;20215;-66
2024/01/04 02:35:14;;;;;;;0.50;0.50;;;4.80;99.90;;;;;;2043294;28;20180;-66
2024/01/04 02:36:15;;;;;;;1.53;0.70;;;4.80;99.90;;;;;;2042912;28;20207;-67
2024/01/04 02:37:16;;;;;;;0.93;0.40;;;4.80;99.90;;;;;;2041522;28;20623;-66
2024/01/04 02:38:16;;;;;;;0.43;0.40;;;4.80;99.90;;;;;;2043210;28;20180;-67
2024/01/04 02:39:17;;;;;;;0.50;0.43;;;4.80;99.90;;;;;;2042680;28;20189;-67
2024/01/04 02:40:18;;;;;;;2.67;0.60;;;4.80;99.90;;;;;;2035954;29;20178;-68
2024/01/04 02:41:19;;;;;;;2.17;0.68;;;4.70;99.90;;;;;;2035104;29;20271;-67
2024/01/04 02:42:19;;;;;;;2.20;0.60;;;4.80;99.90;;;;;;2040241;28;20231;-67
2024/01/04 02:43:20;;;;;;;0.93;0.30;;;4.70;99.90;;;;;;2041798;28;22302;-66
2024/01/04 02:44:21;;;;;;;0.60;0.40;;;4.80;99.90;;;;;;2033627;28;20240;-67
2024/01/04 02:45:22;;;;;;;1.00;0.60;;;4.80;99.90;;;;;;2038038;28;20255;-66
2024/01/04 02:46:22;;;;;;;0.30;0.30;;;4.80;99.90;;;;;;2034872;28;20230;-67
2024/01/04 02:47:23;;;;;;;0.63;0.33;;;4.80;99.90;;;;;;2033177;28;21144;-66
2024/01/04 02:48:24;;;;;;;0.50;0.50;;;4.80;99.90;;;;;;2040583;28;20231;-67
2024/01/04 02:49:24;;;;;;;0.80;0.40;;;4.80;99.90;;;;;;2042793;28;20314;-67
2024/01/04 02:50:25;;;;;;;1.77;0.70;;;4.80;99.90;;;;;;2041070;28;20231;-66
2024/01/04 02:51:26;;;;;;;2.10;0.40;;;4.80;99.90;;;;;;2043953;28;20314;-66
2024/01/04 02:52:26;;;;;;;1.23;0.63;;;4.80;99.90;;;;;;2041182;28;20669;-67
2024/01/04 02:53:27;;;;;;;1.07;0.80;;;4.80;99.90;;;;;;2032841;28;20354;-67
2024/01/04 02:54:28;;;;;;;0.50;0.40;;;4.80;99.90;;;;;;2038839;28;20323;-67
2024/01/04 02:55:28;;;;;;;10.77;1.13;;;4.80;99.90;;;;;;2041795;28;20270;-67
2024/01/04 02:56:29;;;;;;;1.30;0.53;;;4.70;99.90;;;;;;2041202;28;20235;-68
2024/01/04 02:57:30;;;;;;;1.23;0.70;;;4.70;99.90;;;;;;2043779;28;20235;-66
2024/01/04 02:58:30;;;;;;;1.63;0.70;;;4.80;99.90;;;;;;2044839;28;20257;-67
2024/01/04 02:59:31;;;;;;;4.43;0.70;;;4.80;99.90;;;;;;2045001;28;20308;-68
2024/01/04 03:00:32;;;;;;;1.87;0.60;;;4.80;99.90;;;;;;2034493;28;20239;-67
2024/01/04 03:01:32;;;;;;;2.27;0.73;;;4.80;99.90;;;;;;2041552;28;20271;-68
2024/01/04 03:02:33;;;;;;;2.67;0.50;;;4.70;99.90;;;;;;2040747;28;20735;-68
2024/01/04 03:03:34;;;;;;;1.23;0.60;;;4.70;99.90;;;;;;2054115;28;20293;-67
2024/01/04 03:04:36;;;;;;;1.27;0.77;;;4.70;99.90;;;;;;2050708;28;20247;-68
2024/01/04 03:05:37;;;;;;;1.60;0.60;;;4.70;99.90;;;;;;2043426;28;20234;-68
2024/01/04 03:06:37;;;;;;;2.07;0.80;;;4.70;99.90;;;;;;2042299;28;20704;-67
2024/01/04 03:07:38;;;;;;;1.13;0.50;;;4.70;99.90;;;;;;2034149;28;20228;-68
2024/01/04 03:08:39;;;;;;;1.73;1.03;;;4.60;99.90;;;;;;2042538;28;20234;-68
2024/01/04 03:09:39;;;;;;;1.57;1.00;;;4.60;99.90;;;;;;2043815;28;20227;-67
2024/01/04 03:10:40;;;;;;;4.17;1.93;;;4.60;99.90;;;;;;2042461;28;20312;-67
2024/01/04 03:11:41;;;;;;;6.27;1.33;;;4.70;99.90;;;;;;2045445;28;20598;-67
2024/01/04 03:12:41;;;;;;;3.40;0.83;;;4.70;99.90;;;;;;2045225;28;20314;-67
2024/01/04 03:13:42;;;;;;;2.93;0.90;;;4.70;99.90;;;;;;2043722;28;20229;-67
2024/01/04 03:14:43;;;;;;;0.97;0.67;;;4.70;99.90;;;;;;2043434;28;20228;-67
2024/01/04 03:15:43;;;;;;;2.97;0.70;;;4.70;99.90;;;;;;2043078;28;20251;-68
2024/01/04 03:16:44;;;;;;;2.70;1.00;;;4.70;99.90;;;;;;2046127;28;20326;-67
2024/01/04 03:17:45;;;;;;;2.33;0.60;;;4.60;99.90;;;;;;2044864;28;20262;-67
2024/01/04 03:18:45;;;;;;;1.00;0.60;;;4.60;99.90;;;;;;2046048;28;20629;-67
2024/01/04 03:19:46;;;;;;;1.07;0.77;;;4.60;99.90;;;;;;2034263;28;20228;-67
2024/01/04 03:20:47;;;;;;;4.23;0.70;;;4.60;99.90;;;;;;2027609;29;20234;-67
2024/01/04 03:21:47;;;;;;;1.60;0.90;;;4.60;99.90;;;;;;2037866;28;20266;-67
2024/01/04 03:22:48;;;;;;;3.73;0.70;;;4.60;99.90;;;;;;2041502;28;20232;-68
2024/01/04 03:23:49;;;;;;;2.33;1.00;;;4.60;99.90;;;;;;2044805;28;20277;-68
2024/01/04 03:24:50;;;;;;;2.93;1.00;;;4.60;99.90;;;;;;2042026;28;20259;-67
2024/01/04 03:25:50;;;;;;;1.80;0.57;;;4.60;99.90;;;;;;2031399;28;20233;-67
2024/01/04 03:26:51;;;;;;;1.63;0.70;;;4.60;99.90;;;;;;2042789;28;20232;-67
2024/01/04 03:27:51;;;;;;;1.50;0.60;;;4.60;99.90;;;;;;2046015;28;20760;-67
2024/01/04 03:28:52;;;;;;;4.33;0.80;;;4.60;99.90;;;;;;2037465;28;20682;-67
2024/01/04 03:29:54;;;;;;;3.73;0.90;;;4.70;99.90;;;;;;2037963;28;20226;-66
2024/01/04 03:30:55;;;;;;;2.47;0.80;;;4.70;99.90;;;;;;2034995;29;20242;-66
2024/01/04 03:31:55;;;;;;;1.80;0.80;;;4.80;99.90;;;;;;2045261;28;20241;-67
2024/01/04 03:32:56;;;;;;;2.40;0.50;;;4.80;99.90;;;;;;2034395;29;20671;-66
2024/01/04 03:33:57;;;;;;;2.20;1.37;;;4.80;99.90;;;;;;2034165;29;20248;-66
2024/01/04 03:34:57;;;;;;;0.83;0.50;;;4.70;99.90;;;;;;2039346;28;20243;-67
2024/01/04 03:35:58;;;;;;;1.77;0.50;;;4.70;99.90;;;;;;2032113;29;20538;-68
2024/01/04 03:36:59;;;;;;;4.53;1.00;;;4.70;99.90;;;;;;2033751;29;20241;-68
2024/01/04 03:37:59;;;;;;;1.20;0.47;;;4.60;99.90;;;;;;2040944;28;20261;-68
2024/01/04 03:39:00;;;;;;;1.43;0.60;;;4.60;99.90;;;;;;2041330;28;20238;-67
2024/01/04 03:40:01;;;;;;;1.13;0.60;;;4.50;99.90;;;;;;2042594;28;20236;-67
2024/01/04 03:41:02;;;;;;;1.40;0.60;;;4.50;99.90;;;;;;2035448;28;20862;-68
2024/01/04 03:42:03;;;;;;;1.20;0.60;;;4.50;99.90;;;;;;2022574;29;20281;-67
2024/01/04 03:43:04;;;;;;;1.30;0.60;;;4.50;99.90;;;;;;2028160;29;20189;-67
2024/01/04 03:44:04;;;;;;;2.30;0.53;;;4.40;99.90;;;;;;2026053;29;20300;-67
2024/01/04 03:45:06;;;;;;;1.03;0.50;;;4.40;99.90;;;;;;2029901;29;20432;-66
2024/01/04 03:46:10;;;;;;;0.98;0.63;;;4.40;99.90;;;;;;2039190;29;20195;-67
2024/01/04 03:47:11;;;;;;;0.85;0.57;;;4.40;99.90;;;;;;2036968;29;20188;-67
2024/01/04 03:48:12;;;;;;;1.77;1.00;;;4.40;99.90;;;;;;2043350;28;20187;-67
2024/01/04 03:49:12;;;;;;;4.03;0.93;;;4.40;99.90;;;;;;2044103;28;20213;-67
2024/01/04 03:50:13;;;;;;;2.13;0.50;;;4.40;99.90;;;;;;2044004;28;20285;-67
2024/01/04 03:51:14;;;;;;;1.77;0.60;;;4.40;99.90;;;;;;2046021;28;20187;-67
2024/01/04 03:52:15;;;;;;;1.83;0.50;;;4.40;99.90;;;;;;2045830;28;20184;-67
2024/01/04 03:53:15;;;;;;;0.67;0.50;;;4.40;99.90;;;;;;2044415;28;20640;-67
2024/01/04 03:54:16;;;;;;;1.30;0.73;;;4.40;99.90;;;;;;2033117;29;20211;-67
2024/01/04 03:55:17;;;;;;;0.80;0.50;;;4.40;99.90;;;;;;2041927;28;20184;-66
2024/01/04 03:56:17;;;;;;;2.30;1.00;;;4.30;99.90;;;;;;2047073;28;20207;-67
2024/01/04 03:57:18;;;;;;;0.47;0.47;;;4.40;99.90;;;;;;2046192;28;20911;-67
2024/01/04 03:58:19;;;;;;;1.43;0.70;;;4.40;99.90;;;;;;2044932;28;20185;-67
2024/01/04 03:59:20;;;;;;;3.50;1.17;;;4.40;99.90;;;;;;2044001;28;20187;-67
2024/01/04 04:00:20;;;;;;;1.67;0.52;;;4.40;99.90;;;;;;2042840;28;20912;-67
2024/01/04 04:01:21;;;;;;;0.87;0.40;;;4.40;99.90;;;;;;2033748;29;20301;-66
2024/01/04 04:02:22;;;;;;;1.90;0.70;;;4.40;99.90;;;;;;2042712;28;20227;-67
2024/01/04 04:03:23;;;;;;;4.37;1.10;;;4.50;99.90;;;;;;2033297;29;20243;-66
2024/01/04 04:04:24;;;;;;;0.77;0.60;;;4.50;99.90;;;;;;2030272;29;20287;-67
2024/01/04 04:05:25;;;;;;;1.20;0.70;;;4.50;99.90;;;;;;2042566;28;20250;-67
2024/01/04 04:06:25;;;;;;;1.03;0.50;;;4.50;99.90;;;;;;2046124;28;20783;-67
2024/01/04 04:07:26;;;;;;;1.77;0.60;;;4.50;99.90;;;;;;2045337;28;20315;-66
2024/01/04 04:08:27;;;;;;;1.00;0.80;;;4.50;99.90;;;;;;2032912;29;20229;-66
2024/01/04 04:09:28;;;;;;;1.13;0.70;;;4.50;99.90;;;;;;2030815;29;20717;-67
2024/01/04 04:10:28;;;;;;;2.53;1.43;;;4.50;99.90;;;;;;2043726;28;20235;-67
2024/01/04 04:11:29;;;;;;;2.73;0.60;;;4.40;99.90;;;;;;2046092;28;20229;-67
2024/01/04 04:12:30;;;;;;;1.63;0.90;;;4.50;99.90;;;;;;2044332;28;20276;-67
2024/01/04 04:13:32;;;;;;;1.80;1.00;;;4.50;99.90;;;;;;2044120;28;20314;-67
2024/01/04 04:14:34;;;;;;;2.38;0.70;;;4.50;99.90;;;;;;2042845;28;20239;-67
2024/01/04 04:15:34;;;;;;;0.50;0.50;;;4.50;99.90;;;;;;2042672;28;20231;-66
2024/01/04 04:16:40;;;;;;;2.40;0.87;;;4.50;99.90;;;;;;2043746;28;20301;-66
2024/01/04 04:17:41;;;;;;;0.85;0.65;;;4.50;99.90;;;;;;2043550;28;20231;-67
2024/01/04 04:18:42;;;;;;;1.13;0.50;;;4.50;99.90;;;;;;2034233;29;20640;-67
2024/01/04 04:19:43;;;;;;;2.45;0.57;;;4.40;99.90;;;;;;2042552;28;20233;-66
2024/01/04 04:20:43;;;;;;;0.57;0.50;;;4.40;99.90;;;;;;2042885;28;20243;-67
2024/01/04 04:21:44;;;;;;;1.47;0.70;;;4.40;99.90;;;;;;2032664;28;20224;-67
2024/01/04 04:22:45;;;;;;;1.60;1.13;;;4.40;99.90;;;;;;2043553;28;20698;-67
2024/01/04 04:23:49;;;;;;;1.60;0.70;;;4.50;99.90;;;;;;2043000;28;20232;-66
2024/01/04 04:24:50;;;;;;;3.83;1.25;;;4.50;99.90;;;;;;2034451;29;20234;-67
2024/01/04 04:25:50;;;;;;;0.77;0.47;;;4.50;99.90;;;;;;2041385;28;20637;-66
2024/01/04 04:26:51;;;;;;;1.47;0.40;;;4.50;99.90;;;;;;2044732;28;20239;-66
2024/01/04 04:27:52;;;;;;;2.33;1.07;;;4.60;99.90;;;;;;2043700;28;20330;-66
2024/01/04 04:28:52;;;;;;;0.53;0.53;;;4.50;99.90;;;;;;2042709;28;20248;-66
2024/01/04 04:29:53;;;;;;;1.83;0.70;;;4.50;99.90;;;;;;2042736;28;20229;-67
2024/01/04 04:30:54;;;;;;;1.70;0.60;;;4.50;99.90;;;;;;2041750;28;20232;-66
2024/01/04 04:31:55;;;;;;;1.83;0.70;;;4.50;99.90;;;;;;2034485;28;20234;-67
2024/01/04 04:32:56;;;;;;;1.58;0.52;;;4.50;99.90;;;;;;2034241;28;20275;-66
2024/01/04 04:33:56;;;;;;;1.30;0.50;;;4.50;99.90;;;;;;2035109;29;20239;-67
2024/01/04 04:34:57;;;;;;;0.60;0.40;;;4.50;99.90;;;;;;2042979;28;20728;-66
2024/01/04 04:35:58;;;;;;;1.80;0.60;;;4.50;99.90;;;;;;2045346;28;20240;-66
2024/01/04 04:36:58;;;;;;;2.10;0.93;;;4.50;99.90;;;;;;2044828;28;20229;-67
2024/01/04 04:37:59;;;;;;;0.40;0.33;;;4.50;99.90;;;;;;2044960;28;20224;-66
2024/01/04 04:39:02;;;;;;;0.93;0.60;;;4.50;99.90;;;;;;2046239;28;20232;-66
2024/01/04 04:40:03;;;;;;;1.65;0.60;;;4.50;99.90;;;;;;2042218;28;20224;-66
2024/01/04 04:41:05;;;;;;;3.72;0.85;;;4.40;99.90;;;;;;2045681;28;20196;-66
2024/01/04 04:42:06;;;;;;;1.90;0.45;;;4.50;99.90;;;;;;2048067;28;20550;-65
2024/01/04 04:43:07;;;;;;;1.50;0.80;;;4.50;99.90;;;;;;2045775;28;20180;-66
2024/01/04 04:44:08;;;;;;;3.07;1.00;;;4.50;99.90;;;;;;2048479;28;20678;-67
2024/01/04 04:45:08;;;;;;;2.63;0.70;;;4.60;99.90;;;;;;2045139;28;20290;-67
2024/01/04 04:46:10;;;;;;;2.43;1.00;;;4.50;99.90;;;;;;2046347;28;20199;-66
2024/01/04 04:47:10;;;;;;;0.55;0.40;;;4.50;99.90;;;;;;2043409;28;20192;-67
2024/01/04 04:48:11;;;;;;;2.33;0.50;;;4.50;99.90;;;;;;2043837;28;20192;-66
2024/01/04 04:49:12;;;;;;;0.70;0.60;;;4.50;99.90;;;;;;2043323;28;20188;-66
2024/01/04 04:50:13;;;;;;;1.43;0.70;;;4.50;99.90;;;;;;2046141;28;20576;-66
2024/01/04 04:51:13;;;;;;;1.17;0.80;;;4.50;99.90;;;;;;2047059;28;20274;-66
2024/01/04 04:52:14;;;;;;;2.37;0.77;;;4.50;99.90;;;;;;2043778;28;20653;-67
2024/01/04 04:53:15;;;;;;;1.80;0.70;;;4.50;99.90;;;;;;2040969;28;20189;-67
2024/01/04 04:54:18;;;;;;;1.50;0.80;;;4.50;99.90;;;;;;2040675;28;20199;-67
2024/01/04 04:55:19;;;;;;;1.63;0.75;;;4.60;99.90;;;;;;2052967;28;20216;-67
2024/01/04 04:56:19;;;;;;;1.57;0.73;;;4.60;99.90;;;;;;2052020;28;20240;-67
2024/01/04 04:57:20;;;;;;;0.70;0.50;;;4.60;99.90;;;;;;2044085;28;20183;-67
2024/01/04 04:58:21;;;;;;;2.10;0.40;;;4.60;99.90;;;;;;2032266;29;20239;-67
2024/01/04 04:59:21;;;;;;;2.43;1.00;;;4.60;99.90;;;;;;2041650;28;20356;-66
2024/01/04 05:00:22;;;;;;;2.20;0.87;;;4.60;99.90;;;;;;2042289;28;20230;-66
2024/01/04 05:01:23;;;;;;;3.63;0.90;;;4.60;99.90;;;;;;2045329;28;20315;-66
2024/01/04 05:02:23;;;;;;;1.43;0.60;;;4.50;99.90;;;;;;2044424;28;20255;-67
2024/01/04 05:03:24;;;;;;;2.53;0.70;;;4.50;99.90;;;;;;2046366;28;20234;-66
2024/01/04 05:04:25;;;;;;;1.63;0.67;;;4.60;99.90;;;;;;2037757;28;20237;-67
2024/01/04 05:05:25;;;;;;;1.53;0.60;;;4.60;99.90;;;;;;2044983;28;20240;-65
2024/01/04 05:06:26;;;;;;;1.27;0.80;;;4.60;99.90;;;;;;2036552;28;20235;-67
2024/01/04 05:07:27;;;;;;;1.07;0.70;;;4.50;99.90;;;;;;2033528;29;20294;-67
2024/01/04 05:08:27;;;;;;;2.03;0.67;;;4.50;99.90;;;;;;2029110;29;20288;-67
2024/01/04 05:09:28;;;;;;;1.63;0.50;;;4.50;99.90;;;;;;2027036;29;20665;-66
2024/01/04 05:10:29;;;;;;;0.93;0.53;;;4.50;99.90;;;;;;2035585;28;20251;-67
2024/01/04 05:11:29;;;;;;;1.83;0.60;;;4.50;99.90;;;;;;2044288;28;20260;-67
2024/01/04 05:12:31;;;;;;;1.23;0.60;;;4.50;99.90;;;;;;2043573;28;20227;-68
2024/01/04 05:13:35;;;;;;;2.22;0.60;;;4.50;99.90;;;;;;2043289;28;20304;-67
2024/01/04 05:14:36;;;;;;;3.20;1.00;;;4.50;99.90;;;;;;2044606;28;20236;-67
2024/01/04 05:15:37;;;;;;;3.07;0.63;;;4.40;99.90;;;;;;2033661;28;20272;-66
2024/01/04 05:16:37;;;;;;;1.60;1.07;;;4.40;99.90;;;;;;2029253;29;20292;-67
2024/01/04 05:17:38;;;;;;;3.60;0.93;;;4.40;99.90;;;;;;2034883;28;20305;-69
2024/01/04 05:18:39;;;;;;;1.30;0.80;;;4.40;99.90;;;;;;2041816;28;20712;-67
2024/01/04 05:19:44;;;;;;;0.93;0.50;;;4.40;99.90;;;;;;2044354;28;20219;-67
2024/01/04 05:20:45;;;;;;;1.38;0.85;;;4.40;99.90;;;;;;2045217;28;20383;-66
2024/01/04 05:21:45;;;;;;;1.93;0.80;;;4.40;99.90;;;;;;2044726;28;20233;-67